createdAt,value
2019-06-26T00:01:56.153Z,23.57
2019-06-26T00:04:25.679Z,23.52
2019-06-26T00:06:52.287Z,23.49
2019-06-26T00:09:18.916Z,23.45
2019-06-26T00:11:47.359Z,23.40
2019-06-26T00:14:14.045Z,23.45
2019-06-26T00:16:40.723Z,23.32
2019-06-26T00:19:07.328Z,23.33
2019-06-26T00:21:34.318Z,23.29
2019-06-26T00:24:01.910Z,23.26
2019-06-26T00:26:29.855Z,23.29
2019-06-26T00:28:57.535Z,23.15
2019-06-26T00:31:24.469Z,23.11
2019-06-26T00:33:52.115Z,23.13
2019-06-26T00:36:18.808Z,23.09
2019-06-26T00:38:45.393Z,23.06
2019-06-26T00:41:12.098Z,23.08
2019-06-26T00:43:42.636Z,23.08
2019-06-26T00:46:07.311Z,23.03
2019-06-26T00:48:33.975Z,23.00
2019-06-26T00:51:01.040Z,22.93
2019-06-26T00:53:27.699Z,22.96
2019-06-26T00:55:55.225Z,22.92
2019-06-26T00:58:22.406Z,22.95
2019-06-26T01:00:50.528Z,22.92
2019-06-26T01:03:17.162Z,22.94
2019-06-26T01:05:44.969Z,22.87
2019-06-26T01:08:11.600Z,22.87
2019-06-26T01:10:38.224Z,22.85
2019-06-26T01:13:04.987Z,22.83
2019-06-26T01:15:32.704Z,22.87
2019-06-26T01:17:59.351Z,22.84
2019-06-26T01:20:28.228Z,22.83
2019-06-26T01:22:54.848Z,22.81
2019-06-26T01:25:21.851Z,22.73
2019-06-26T01:27:48.462Z,22.70
2019-06-26T01:30:16.891Z,22.73
2019-06-26T01:32:44.627Z,22.68
2019-06-26T01:35:11.406Z,22.62
2019-06-26T01:37:39.008Z,22.57
2019-06-26T01:40:07.620Z,22.56
2019-06-26T01:42:34.305Z,22.58
2019-06-26T01:45:01.024Z,22.50
2019-06-26T01:47:27.588Z,22.50
2019-06-26T01:49:54.352Z,22.43
2019-06-26T01:52:20.921Z,22.40
2019-06-26T01:54:47.509Z,22.40
2019-06-26T01:57:14.277Z,22.42
2019-06-26T01:59:42.706Z,22.42
2019-06-26T02:02:11.161Z,22.39
2019-06-26T02:04:39.038Z,22.39
2019-06-26T02:07:06.083Z,22.40
2019-06-26T02:09:32.716Z,22.40
2019-06-26T02:12:00.505Z,22.34
2019-06-26T02:14:31.469Z,22.34
2019-06-26T02:16:57.183Z,22.36
2019-06-26T02:19:25.403Z,22.31
2019-06-26T02:21:52.337Z,22.28
2019-06-26T02:24:18.958Z,22.31
2019-06-26T02:26:47.374Z,22.24
2019-06-26T02:29:15.638Z,22.24
2019-06-26T02:31:42.287Z,22.21
2019-06-26T02:34:11.813Z,22.14
2019-06-26T02:36:38.441Z,22.18
2019-06-26T02:39:05.684Z,22.12
2019-06-26T02:41:34.787Z,22.13
2019-06-26T02:44:01.535Z,22.01
2019-06-26T02:46:28.196Z,22.02
2019-06-26T02:48:54.769Z,22.02
2019-06-26T02:51:21.409Z,21.96
2019-06-26T02:53:48.071Z,21.93
2019-06-26T02:56:14.673Z,21.91
2019-06-26T02:58:41.287Z,21.91
2019-06-26T03:01:07.944Z,21.94
2019-06-26T03:03:34.602Z,21.90
2019-06-26T03:06:01.272Z,21.90
2019-06-26T03:08:28.969Z,21.88
2019-06-26T03:10:56.213Z,21.88
2019-06-26T03:13:22.921Z,21.86
2019-06-26T03:15:50.934Z,21.87
2019-06-26T03:18:17.674Z,21.83
2019-06-26T03:20:53.817Z,21.83
2019-06-26T03:23:20.447Z,21.76
2019-06-26T03:25:47.074Z,21.76
2019-06-26T03:28:13.681Z,21.78
2019-06-26T03:30:40.352Z,21.78
2019-06-26T03:33:07.015Z,21.69
2019-06-26T03:35:35.487Z,21.78
2019-06-26T03:38:03.485Z,21.81
2019-06-26T03:40:30.223Z,21.81
2019-06-26T03:42:56.870Z,21.78
2019-06-26T03:45:26.417Z,21.68
2019-06-26T03:47:53.498Z,21.68
2019-06-26T03:50:20.185Z,21.73
2019-06-26T03:52:46.831Z,21.72
2019-06-26T03:55:13.468Z,21.72
2019-06-26T03:57:40.103Z,21.76
2019-06-26T04:00:07.633Z,21.67
2019-06-26T04:02:34.231Z,21.67
2019-06-26T04:05:00.909Z,21.73
2019-06-26T04:07:27.584Z,21.73
2019-06-26T04:09:54.190Z,21.72
2019-06-26T04:12:21.154Z,21.87
2019-06-26T04:14:47.780Z,21.94
2019-06-26T04:17:14.394Z,21.96
2019-06-26T04:19:41.303Z,22.01
2019-06-26T04:22:08.060Z,22.15
2019-06-26T04:24:36.958Z,22.23
2019-06-26T04:27:03.595Z,22.26
2019-06-26T04:29:30.234Z,22.21
2019-06-26T04:31:56.840Z,22.09
2019-06-26T04:34:23.452Z,22.11
2019-06-26T04:36:50.202Z,21.98
2019-06-26T04:39:16.824Z,22.01
2019-06-26T04:41:43.480Z,22.09
2019-06-26T04:44:10.154Z,21.99
2019-06-26T04:46:36.752Z,21.86
2019-06-26T04:49:03.356Z,21.91
2019-06-26T04:51:30.011Z,21.85
2019-06-26T04:53:56.611Z,21.85
2019-06-26T04:56:23.222Z,21.95
2019-06-26T04:58:50.385Z,22.02
2019-06-26T05:01:17.001Z,21.98
2019-06-26T05:03:43.623Z,21.93
2019-06-26T05:06:10.293Z,21.98
2019-06-26T05:08:38.085Z,22.06
2019-06-26T05:11:04.741Z,22.21
2019-06-26T05:13:31.417Z,22.30
2019-06-26T05:16:10.579Z,22.39
2019-06-26T05:18:26.899Z,22.58
2019-06-26T05:20:53.580Z,22.62
2019-06-26T05:23:20.520Z,22.77
2019-06-26T05:25:47.247Z,22.80
2019-06-26T05:28:15.901Z,22.86
2019-06-26T05:30:42.516Z,22.92
2019-06-26T05:33:10.679Z,23.05
2019-06-26T05:35:37.308Z,23.33
2019-06-26T05:38:03.934Z,23.54
2019-06-26T05:40:30.644Z,23.61
2019-06-26T05:42:58.573Z,23.86
2019-06-26T05:45:25.890Z,23.84
2019-06-26T05:47:52.606Z,23.73
2019-06-26T05:50:19.769Z,23.80
2019-06-26T05:52:46.682Z,23.87
2019-06-26T05:55:13.815Z,23.95
2019-06-26T05:57:41.879Z,23.94
2019-06-26T06:00:11.460Z,24.06
2019-06-26T06:02:38.351Z,24.36
2019-06-26T06:05:08.823Z,24.53
2019-06-26T06:07:35.543Z,24.74
2019-06-26T06:10:03.193Z,25.00
2019-06-26T06:12:29.867Z,25.17
2019-06-26T06:14:56.405Z,25.34
2019-06-26T06:17:23.005Z,25.42
2019-06-26T06:19:49.662Z,25.20
2019-06-26T06:22:16.264Z,25.21
2019-06-26T06:24:42.886Z,25.26
2019-06-26T06:27:09.765Z,25.29
2019-06-26T06:29:36.406Z,25.51
2019-06-26T06:32:03.015Z,25.77
2019-06-26T06:34:29.674Z,25.86
2019-06-26T06:36:56.270Z,25.92
2019-06-26T06:39:22.872Z,26.00
2019-06-26T06:41:49.523Z,26.12
2019-06-26T06:44:16.233Z,26.21
2019-06-26T06:46:42.851Z,26.18
2019-06-26T06:49:09.511Z,26.52
2019-06-26T06:51:36.493Z,26.83
2019-06-26T06:54:03.916Z,26.77
2019-06-26T06:56:30.626Z,26.62
2019-06-26T06:58:57.224Z,26.64
2019-06-26T07:01:23.819Z,27.06
2019-06-26T07:03:50.435Z,27.25
2019-06-26T07:06:18.151Z,27.33
2019-06-26T07:08:44.727Z,27.35
2019-06-26T07:11:11.383Z,27.46
2019-06-26T07:13:37.969Z,27.69
2019-06-26T07:16:04.616Z,27.63
2019-06-26T07:18:31.171Z,27.75
2019-06-26T07:20:57.767Z,27.76
2019-06-26T07:23:25.046Z,27.89
2019-06-26T07:25:51.753Z,28.12
2019-06-26T07:28:18.696Z,28.33
2019-06-26T07:30:46.458Z,28.58
2019-06-26T07:33:13.077Z,28.72
2019-06-26T07:38:54.087Z,28.64
2019-06-26T07:41:20.639Z,28.50
2019-06-26T07:43:47.261Z,28.53
2019-06-26T07:46:14.019Z,28.73
2019-06-26T07:48:41.326Z,29.11
2019-06-26T07:51:08.257Z,29.53
2019-06-26T07:53:35.098Z,29.95
2019-06-26T07:56:01.712Z,30.35
2019-06-26T07:58:28.287Z,30.48
2019-06-26T08:00:54.886Z,30.15
2019-06-26T08:03:23.271Z,29.95
2019-06-26T08:05:49.855Z,30.18
2019-06-26T08:08:18.258Z,29.93
2019-06-26T08:10:44.837Z,29.73
2019-06-26T08:13:11.414Z,30.40
2019-06-26T08:15:39.785Z,31.02
2019-06-26T08:18:06.557Z,31.39
2019-06-26T08:20:47.038Z,31.16
2019-06-26T08:23:03.525Z,31.09
2019-06-26T08:25:30.073Z,31.35
2019-06-26T08:27:56.653Z,31.36
2019-06-26T08:30:25.135Z,30.57
2019-06-26T08:32:51.763Z,30.68
2019-06-26T08:35:18.393Z,31.05
2019-06-26T08:37:45.068Z,31.63
2019-06-26T08:40:13.938Z,32.14
2019-06-26T08:42:40.703Z,32.39
2019-06-26T08:45:07.859Z,32.18
2019-06-26T08:47:34.827Z,31.96
2019-06-26T08:50:03.464Z,32.01
2019-06-26T08:52:33.537Z,32.38
2019-06-26T08:58:04.770Z,33.17
2019-06-26T09:00:31.366Z,32.97
2019-06-26T09:02:57.971Z,33.15
2019-06-26T09:05:24.675Z,33.03
2019-06-26T09:07:52.654Z,32.98
2019-06-26T09:10:19.600Z,33.20
2019-06-26T09:12:47.296Z,32.90
2019-06-26T09:15:13.876Z,32.18
2019-06-26T09:17:40.524Z,32.15
2019-06-26T09:20:07.734Z,32.14
2019-06-26T09:22:34.492Z,31.79
2019-06-26T09:25:01.114Z,31.68
2019-06-26T09:27:27.752Z,32.20
2019-06-26T09:29:54.499Z,32.64
2019-06-26T09:32:21.150Z,32.70
2019-06-26T09:34:47.819Z,33.05
2019-06-26T09:37:14.406Z,32.87
2019-06-26T09:39:41.038Z,32.78
2019-06-26T09:42:08.710Z,32.78
2019-06-26T09:44:35.325Z,33.04
2019-06-26T09:47:01.926Z,32.80
2019-06-26T09:49:28.584Z,32.72
2019-06-26T09:51:55.343Z,32.73
2019-06-26T09:54:22.108Z,32.77
2019-06-26T09:56:48.608Z,32.70
2019-06-26T09:59:15.325Z,32.45
2019-06-26T10:01:42.100Z,33.24
2019-06-26T10:04:08.794Z,33.64
2019-06-26T10:06:35.445Z,33.67
2019-06-26T10:09:03.232Z,34.09
2019-06-26T10:11:31.203Z,33.64
2019-06-26T10:13:57.814Z,33.36
2019-06-26T10:16:25.476Z,32.50
2019-06-26T10:19:05.635Z,32.66
2019-06-26T10:21:23.586Z,32.94
2019-06-26T10:23:49.462Z,33.32
2019-06-26T10:26:16.194Z,33.42
2019-06-26T10:28:42.906Z,33.79
2019-06-26T10:31:09.596Z,34.03
2019-06-26T10:33:36.325Z,33.46
2019-06-26T10:36:03.112Z,33.47
2019-06-26T10:38:29.693Z,33.30
2019-06-26T10:40:56.374Z,33.10
2019-06-26T10:43:23.066Z,32.77
2019-06-26T10:45:49.734Z,32.91
2019-06-26T10:48:16.607Z,32.92
2019-06-26T10:50:50.036Z,32.53
2019-06-26T10:53:11.981Z,32.80
2019-06-26T10:55:38.775Z,32.77
2019-06-26T10:58:05.339Z,33.09
2019-06-26T11:00:32.213Z,33.44
2019-06-26T11:02:59.940Z,33.57
2019-06-26T11:05:26.621Z,34.28
2019-06-26T11:07:54.361Z,34.22
2019-06-26T11:10:21.212Z,34.43
2019-06-26T11:12:49.097Z,34.76
2019-06-26T11:15:16.177Z,35.21
2019-06-26T11:17:42.829Z,35.11
2019-06-26T11:20:10.194Z,34.92
2019-06-26T11:22:36.877Z,35.00
2019-06-26T11:25:05.608Z,35.41
2019-06-26T11:27:32.287Z,35.35
2019-06-26T11:29:58.902Z,35.43
2019-06-26T11:32:25.531Z,35.06
2019-06-26T11:34:52.152Z,34.69
2019-06-26T11:37:18.714Z,34.47
2019-06-26T11:39:47.516Z,33.92
2019-06-26T11:42:14.149Z,33.56
2019-06-26T11:44:44.100Z,33.76
2019-06-26T11:47:11.157Z,34.09
2019-06-26T11:49:37.821Z,34.35
2019-06-26T11:52:04.483Z,34.19
2019-06-26T11:54:31.438Z,33.99
2019-06-26T11:56:59.132Z,34.10
2019-06-26T11:59:25.815Z,34.33
2019-06-26T12:01:52.446Z,34.54
2019-06-26T12:04:19.141Z,35.01
2019-06-26T12:06:46.370Z,35.36
2019-06-26T12:09:13.090Z,35.28
2019-06-26T12:11:39.679Z,35.36
2019-06-26T12:14:06.535Z,35.74
2019-06-26T12:16:33.349Z,35.88
2019-06-26T12:19:00.024Z,36.24
2019-06-26T12:21:26.628Z,36.17
2019-06-26T12:23:53.320Z,35.50
2019-06-26T12:26:19.887Z,35.58
2019-06-26T12:28:46.545Z,34.60
2019-06-26T12:31:13.400Z,34.50
2019-06-26T12:33:40.151Z,34.56
2019-06-26T12:36:06.905Z,34.77
2019-06-26T12:38:33.561Z,34.65
2019-06-26T12:41:01.255Z,34.98
2019-06-26T12:43:29.915Z,34.92
2019-06-26T12:45:57.663Z,34.74
2019-06-26T12:48:24.274Z,34.77
2019-06-26T12:50:51.598Z,35.15
2019-06-26T12:53:18.475Z,35.40
2019-06-26T12:55:46.328Z,35.44
2019-06-26T12:58:19.488Z,35.81
2019-06-26T13:00:44.099Z,35.84
2019-06-26T13:03:11.229Z,35.34
2019-06-26T13:05:37.871Z,35.15
2019-06-26T13:08:04.510Z,34.85
2019-06-26T13:10:45.001Z,34.66
2019-06-26T13:12:59.664Z,34.64
2019-06-26T13:15:26.429Z,34.62
2019-06-26T13:17:53.101Z,34.29
2019-06-26T13:20:20.378Z,34.35
2019-06-26T13:22:48.961Z,34.32
2019-06-26T13:25:16.278Z,34.37
2019-06-26T13:27:43.129Z,34.79
2019-06-26T13:30:10.201Z,34.70
2019-06-26T13:32:36.861Z,34.84
2019-06-26T13:35:06.882Z,35.37
2019-06-26T13:37:33.574Z,35.30
2019-06-26T13:40:00.192Z,35.10
2019-06-26T13:42:26.791Z,34.60
2019-06-26T13:44:53.472Z,34.90
2019-06-26T13:47:20.100Z,34.75
2019-06-26T13:49:46.766Z,34.40
2019-06-26T13:52:13.537Z,34.54
2019-06-26T13:54:41.261Z,34.45
2019-06-26T13:57:07.848Z,34.57
2019-06-26T13:59:34.447Z,34.69
2019-06-26T14:02:01.119Z,34.47
2019-06-26T14:04:27.686Z,34.47
2019-06-26T14:06:54.467Z,34.13
2019-06-26T14:09:21.055Z,34.27
2019-06-26T14:11:48.712Z,34.12
2019-06-26T14:14:15.308Z,34.09
2019-06-26T14:16:42.743Z,34.21
2019-06-26T14:19:09.357Z,34.20
2019-06-26T14:21:36.086Z,34.37
2019-06-26T14:24:02.780Z,34.15
2019-06-26T14:26:29.354Z,34.24
2019-06-26T14:28:55.981Z,34.38
2019-06-26T14:31:23.917Z,34.38
2019-06-26T14:33:50.642Z,34.67
2019-06-26T14:36:17.252Z,34.65
2019-06-26T14:38:43.961Z,34.63
2019-06-26T14:41:10.562Z,34.39
2019-06-26T14:43:37.213Z,34.45
2019-06-26T14:46:04.000Z,34.14
2019-06-26T14:48:30.603Z,33.94
2019-06-26T14:50:57.242Z,33.99
2019-06-26T14:53:23.847Z,34.11
2019-06-26T14:55:50.520Z,34.15
2019-06-26T14:58:17.127Z,34.24
2019-06-26T15:00:43.743Z,34.24
2019-06-26T15:03:10.459Z,34.02
2019-06-26T15:05:36.929Z,33.84
2019-06-26T15:08:03.506Z,33.66
2019-06-26T15:10:30.181Z,33.77
2019-06-26T15:12:57.345Z,33.77
2019-06-26T15:15:25.062Z,33.43
2019-06-26T15:17:51.761Z,33.53
2019-06-26T15:20:18.561Z,33.59
2019-06-26T15:22:45.188Z,33.57
2019-06-26T15:25:12.316Z,33.66
2019-06-26T15:27:38.925Z,33.78
2019-06-26T15:30:08.514Z,33.77
2019-06-26T15:32:35.131Z,33.75
2019-06-26T15:35:03.769Z,33.72
2019-06-26T15:37:30.402Z,33.93
2019-06-26T15:39:56.975Z,34.03
2019-06-26T15:42:23.741Z,33.53
2019-06-26T15:44:50.337Z,33.66
2019-06-26T15:47:16.972Z,33.54
2019-06-26T15:49:43.566Z,33.78
2019-06-26T15:52:15.035Z,33.67
2019-06-26T15:54:38.647Z,33.77
2019-06-26T15:57:05.320Z,33.85
2019-06-26T15:59:31.916Z,34.00
2019-06-26T16:02:00.369Z,33.99
2019-06-26T16:04:27.099Z,33.93
2019-06-26T16:06:53.670Z,33.92
2019-06-26T16:09:20.418Z,33.53
2019-06-26T16:11:47.053Z,33.48
2019-06-26T16:14:13.845Z,33.44
2019-06-26T16:16:42.191Z,33.38
2019-06-26T16:19:13.174Z,33.52
2019-06-26T16:21:39.802Z,33.70
2019-06-26T16:24:06.392Z,33.60
2019-06-26T16:26:33.015Z,33.56
2019-06-26T16:28:59.658Z,33.43
2019-06-26T16:31:26.241Z,33.42
2019-06-26T16:33:52.888Z,33.54
2019-06-26T16:36:19.505Z,33.75
2019-06-26T16:38:46.177Z,33.78
2019-06-26T16:41:12.892Z,33.80
2019-06-26T16:43:39.366Z,33.81
2019-06-26T16:46:06.049Z,33.55
2019-06-26T16:48:32.722Z,33.42
2019-06-26T16:51:00.355Z,33.38
2019-06-26T16:53:26.953Z,33.25
2019-06-26T16:55:55.399Z,33.26
2019-06-26T16:58:22.279Z,33.05
2019-06-26T17:00:49.737Z,32.98
2019-06-26T17:03:16.699Z,33.03
2019-06-26T17:05:43.243Z,32.93
2019-06-26T17:08:09.859Z,32.83
2019-06-26T17:10:36.537Z,32.83
2019-06-26T17:13:04.114Z,32.76
2019-06-26T17:15:30.710Z,32.73
2019-06-26T17:17:57.502Z,32.78
2019-06-26T17:20:24.256Z,32.79
2019-06-26T17:23:04.278Z,32.78
2019-06-26T17:25:19.447Z,32.86
2019-06-26T17:27:46.126Z,32.81
2019-06-26T17:30:12.953Z,32.67
2019-06-26T17:32:39.590Z,32.62
2019-06-26T17:35:06.613Z,32.74
2019-06-26T17:37:34.267Z,32.69
2019-06-26T17:40:01.076Z,32.47
2019-06-26T17:42:27.682Z,32.38
2019-06-26T17:44:54.295Z,32.41
2019-06-26T17:47:20.955Z,32.53
2019-06-26T17:49:47.831Z,32.48
2019-06-26T17:52:14.414Z,32.42
2019-06-26T17:54:41.053Z,32.31
2019-06-26T17:57:07.627Z,32.28
2019-06-26T17:59:34.302Z,32.41
2019-06-26T18:02:01.001Z,32.38
2019-06-26T18:04:27.576Z,32.27
2019-06-26T18:06:57.047Z,32.22
2019-06-26T18:09:23.759Z,32.19
2019-06-26T18:11:50.384Z,32.17
2019-06-26T18:14:16.999Z,32.20
2019-06-26T18:16:43.641Z,32.21
2019-06-26T18:19:10.384Z,32.18
2019-06-26T18:21:36.986Z,32.14
2019-06-26T18:24:03.688Z,32.10
2019-06-26T18:26:30.321Z,32.01
2019-06-26T18:28:56.907Z,32.00
2019-06-26T18:31:23.567Z,31.94
2019-06-26T18:33:50.277Z,31.89
2019-06-26T18:36:16.867Z,31.81
2019-06-26T18:38:43.493Z,31.70
2019-06-26T18:41:10.138Z,31.52
2019-06-26T18:43:36.710Z,31.46
2019-06-26T18:46:03.287Z,31.31
2019-06-26T18:48:29.939Z,31.24
2019-06-26T18:50:57.511Z,31.10
2019-06-26T18:53:24.282Z,30.96
2019-06-26T18:55:50.875Z,30.87
2019-06-26T18:58:17.483Z,30.82
2019-06-26T19:00:44.131Z,30.63
2019-06-26T19:03:10.751Z,30.61
2019-06-26T19:05:37.408Z,30.35
2019-06-26T19:08:04.039Z,30.19
2019-06-26T19:10:30.623Z,30.20
2019-06-26T19:12:57.255Z,30.18
2019-06-26T19:15:23.831Z,30.09
2019-06-26T19:17:50.520Z,30.05
2019-06-26T19:20:18.693Z,29.98
2019-06-26T19:22:47.552Z,29.94
2019-06-26T19:25:14.017Z,29.86
2019-06-26T19:27:40.681Z,29.77
2019-06-26T19:30:08.955Z,29.71
2019-06-26T19:32:37.512Z,29.57
2019-06-26T19:35:18.450Z,29.53
2019-06-26T19:37:35.076Z,29.45
2019-06-26T19:40:01.669Z,29.31
2019-06-26T19:42:28.295Z,29.29
2019-06-26T19:44:55.278Z,29.25
2019-06-26T19:47:21.890Z,29.20
2019-06-26T19:49:48.465Z,29.13
2019-06-26T19:52:15.128Z,29.05
2019-06-26T19:54:41.682Z,28.99
2019-06-26T19:57:08.352Z,28.89
2019-06-26T19:59:34.961Z,28.83
2019-06-26T20:05:50.641Z,28.73
2019-06-26T20:08:17.255Z,28.60
2019-06-26T20:10:43.840Z,28.52
2019-06-26T20:13:10.436Z,28.44
2019-06-26T20:15:37.069Z,28.42
2019-06-26T20:18:04.419Z,28.42
2019-06-26T20:20:32.317Z,28.38
2019-06-26T20:22:58.924Z,28.32
2019-06-26T20:25:25.601Z,28.27
2019-06-26T20:27:57.219Z,28.23
2019-06-26T20:30:26.237Z,28.19
2019-06-26T20:32:54.148Z,28.15
2019-06-26T20:35:20.703Z,28.08
2019-06-26T20:37:47.285Z,28.03
2019-06-26T20:40:14.366Z,27.99
2019-06-26T20:42:41.072Z,27.93
2019-06-26T20:45:08.188Z,27.91
2019-06-26T20:47:34.931Z,27.84
2019-06-26T20:50:01.486Z,27.80
2019-06-26T20:52:28.029Z,27.75
2019-06-26T20:55:00.948Z,27.60
2019-06-26T20:57:23.346Z,27.55
2019-06-26T20:59:50.024Z,27.52
2019-06-26T21:02:16.637Z,27.48
2019-06-26T21:04:43.216Z,27.38
2019-06-26T21:07:09.900Z,27.24
2019-06-26T21:09:36.650Z,27.20
2019-06-26T21:12:03.383Z,27.22
